Time;durP1;ratioP1;P1;durP2;ratioP2;P2;SDS_P1;SDS_P2;PMS_P1;PMS_P2;Temp;Humidity;BMP_temperature;BMP_pressure;BME280_temperature;BME280_humidity;BME280_pressure;Samples;Min_cycle;Max_cycle;Signal;HPM_P1;HPM_P2
2023/10/27 00:00:37;;;;;;;6.43;2.53;;;;;;;;;;5049629;28;20017;-80
2023/10/27 00:03:05;;;;;;;10.00;2.60;;;;;;;;;;5051486;28;20491;-80
2023/10/27 00:05:31;;;;;;;6.95;2.30;;;;;;;;;;5050313;28;20032;-79
2023/10/27 00:07:56;;;;;;;8.23;2.08;;;;;;;;;;5050293;28;20033;-79
2023/10/27 00:10:22;;;;;;;10.60;2.65;;;;;;;;;;5050305;28;20029;-80
2023/10/27 00:12:47;;;;;;;7.75;2.17;;;;;;;;;;5049496;28;20040;-80
2023/10/27 00:15:12;;;;;;;8.75;2.58;;;;;;;;;;5051593;28;20017;-80
2023/10/27 00:17:38;;;;;;;9.52;2.35;;;;;;;;;;5049499;28;20017;-80
2023/10/27 00:20:03;;;;;;;10.45;2.40;;;;;;;;;;5051248;28;20029;-80
2023/10/27 00:22:28;;;;;;;8.63;2.38;;;;;;;;;;5049815;28;20480;-79
2023/10/27 00:24:54;;;;;;;13.43;2.85;;;;;;;;;;5050147;28;20032;-79
2023/10/27 00:27:20;;;;;;;8.60;2.20;;;;;;;;;;5050098;28;20021;-80
2023/10/27 00:29:45;;;;;;;8.02;2.38;;;;;;;;;;5049760;28;20037;-79
2023/10/27 00:32:13;;;;;;;6.30;2.08;;;;;;;;;;5049796;28;20029;-80
2023/10/27 00:34:38;;;;;;;6.68;2.28;;;;;;;;;;5049769;28;20017;-79
2023/10/27 00:37:04;;;;;;;6.90;2.65;;;;;;;;;;5050015;28;20027;-80
2023/10/27 00:39:29;;;;;;;8.57;2.47;;;;;;;;;;5049788;28;20063;-79
2023/10/27 00:41:54;;;;;;;4.82;2.20;;;;;;;;;;5050271;28;20092;-80
2023/10/27 00:44:19;;;;;;;12.85;2.75;;;;;;;;;;5049967;28;20036;-80
2023/10/27 00:46:45;;;;;;;8.93;2.42;;;;;;;;;;5048755;28;20028;-79
2023/10/27 00:49:11;;;;;;;7.68;2.55;;;;;;;;;;5042262;28;20028;-79
2023/10/27 00:51:36;;;;;;;11.43;2.83;;;;;;;;;;5049939;28;20025;-79
2023/10/27 00:54:02;;;;;;;15.50;2.63;;;;;;;;;;5049390;28;20020;-79
2023/10/27 00:56:28;;;;;;;8.93;2.35;;;;;;;;;;5054835;28;20013;-79
2023/10/27 00:58:53;;;;;;;9.02;2.42;;;;;;;;;;5053639;28;20062;-79
2023/10/27 01:01:19;;;;;;;8.23;2.47;;;;;;;;;;5053438;28;20107;-79
2023/10/27 01:03:44;;;;;;;9.60;2.20;;;;;;;;;;5053285;28;20087;-79
2023/10/27 01:06:10;;;;;;;12.73;2.55;;;;;;;;;;5053972;28;20763;-79
2023/10/27 01:08:35;;;;;;;14.88;2.63;;;;;;;;;;5053914;28;20132;-79
2023/10/27 01:11:01;;;;;;;11.43;2.47;;;;;;;;;;5053510;28;20106;-79
2023/10/27 01:13:26;;;;;;;7.63;2.10;;;;;;;;;;5052758;28;20068;-79
2023/10/27 01:15:51;;;;;;;10.07;2.15;;;;;;;;;;5053217;28;20021;-79
2023/10/27 01:18:16;;;;;;;12.05;3.47;;;;;;;;;;5053218;28;20033;-79
2023/10/27 01:20:42;;;;;;;11.77;2.25;;;;;;;;;;5053517;28;20071;-79
2023/10/27 01:23:07;;;;;;;7.95;2.47;;;;;;;;;;5053299;28;20017;-79
2023/10/27 01:25:35;;;;;;;4.78;1.95;;;;;;;;;;5052928;28;20040;-79
2023/10/27 01:28:02;;;;;;;8.52;1.75;;;;;;;;;;5054695;28;20070;-79
2023/10/27 01:30:27;;;;;;;8.57;2.10;;;;;;;;;;5054234;28;20032;-79
2023/10/27 01:32:53;;;;;;;14.77;2.63;;;;;;;;;;5052434;28;20702;-79
2023/10/27 01:35:18;;;;;;;9.73;1.98;;;;;;;;;;5053058;28;20025;-79
2023/10/27 01:37:43;;;;;;;8.82;2.53;;;;;;;;;;5052542;28;20021;-79
2023/10/27 01:40:09;;;;;;;9.23;2.28;;;;;;;;;;5052438;28;20029;-79
2023/10/27 01:42:36;;;;;;;12.18;2.13;;;;;;;;;;5052566;28;20131;-79
2023/10/27 01:45:03;;;;;;;7.60;2.30;;;;;;;;;;5051957;28;20381;-79
2023/10/27 01:47:29;;;;;;;16.77;2.80;;;;;;;;;;5051724;28;20025;-80
2023/10/27 01:49:55;;;;;;;6.72;2.10;;;;;;;;;;5052518;28;20021;-79
2023/10/27 01:52:20;;;;;;;9.75;2.40;;;;;;;;;;5052090;28;20029;-79
2023/10/27 01:54:45;;;;;;;13.23;2.13;;;;;;;;;;5052509;28;20079;-79
2023/10/27 01:57:10;;;;;;;9.38;2.00;;;;;;;;;;5052437;28;20103;-79
2023/10/27 01:59:36;;;;;;;6.50;1.85;;;;;;;;;;5052690;28;20071;-79
2023/10/27 02:02:01;;;;;;;6.35;1.60;;;;;;;;;;5053577;28;20025;-79
2023/10/27 02:04:26;;;;;;;10.80;2.20;;;;;;;;;;5052424;28;20019;-79
2023/10/27 02:06:52;;;;;;;12.25;2.40;;;;;;;;;;5052073;28;20021;-80
2023/10/27 02:09:18;;;;;;;7.30;2.15;;;;;;;;;;5052172;28;20040;-79
2023/10/27 02:11:43;;;;;;;7.45;1.83;;;;;;;;;;5052133;28;20025;-79
2023/10/27 02:14:08;;;;;;;4.72;1.50;;;;;;;;;;5051698;28;20025;-79
2023/10/27 02:16:33;;;;;;;6.95;1.80;;;;;;;;;;5051975;28;20070;-80
2023/10/27 02:18:58;;;;;;;5.45;1.60;;;;;;;;;;5051374;28;20082;-79
2023/10/27 02:21:24;;;;;;;4.38;1.50;;;;;;;;;;5052272;28;20414;-79
2023/10/27 02:23:49;;;;;;;4.97;1.40;;;;;;;;;;5051750;28;20055;-79
2023/10/27 02:26:14;;;;;;;3.53;1.63;;;;;;;;;;5050982;28;20414;-79
2023/10/27 02:28:39;;;;;;;5.80;1.45;;;;;;;;;;5051422;28;20029;-79
2023/10/27 02:31:05;;;;;;;10.27;1.88;;;;;;;;;;5051300;28;20020;-79
2023/10/27 02:33:30;;;;;;;6.25;1.38;;;;;;;;;;5051313;28;20104;-79
2023/10/27 02:35:55;;;;;;;5.43;1.48;;;;;;;;;;5051859;28;20049;-79
2023/10/27 02:38:20;;;;;;;4.13;1.50;;;;;;;;;;5052464;28;20567;-79
2023/10/27 02:40:46;;;;;;;3.88;1.60;;;;;;;;;;5051980;28;20028;-79
2023/10/27 02:43:11;;;;;;;11.32;1.35;;;;;;;;;;5051896;28;20048;-79
2023/10/27 02:45:37;;;;;;;4.35;1.30;;;;;;;;;;5051796;28;20025;-79
2023/10/27 02:48:02;;;;;;;7.53;1.58;;;;;;;;;;5054761;28;20021;-79
2023/10/27 02:50:27;;;;;;;8.07;1.52;;;;;;;;;;5069646;28;20047;-78
2023/10/27 02:52:53;;;;;;;4.25;1.27;;;;;;;;;;5071105;28;20017;-79
2023/10/27 02:55:18;;;;;;;4.07;1.25;;;;;;;;;;5058528;28;20035;-80
2023/10/27 02:57:43;;;;;;;3.42;1.38;;;;;;;;;;5071409;28;20025;-79
2023/10/27 03:00:09;;;;;;;3.85;1.40;;;;;;;;;;5071210;28;20016;-80
2023/10/27 03:02:34;;;;;;;2.78;1.30;;;;;;;;;;5059042;28;20021;-79
2023/10/27 03:04:59;;;;;;;8.48;1.38;;;;;;;;;;5052301;28;20138;-79
2023/10/27 03:07:25;;;;;;;6.25;1.55;;;;;;;;;;5071749;28;20119;-79
2023/10/27 03:09:50;;;;;;;7.43;1.40;;;;;;;;;;5070257;28;20468;-78
2023/10/27 03:12:16;;;;;;;6.07;1.50;;;;;;;;;;5070494;28;20039;-79
2023/10/27 03:14:41;;;;;;;7.75;1.95;;;;;;;;;;5060113;28;20020;-79
2023/10/27 03:17:07;;;;;;;4.25;1.80;;;;;;;;;;5070466;28;20070;-79
2023/10/27 03:19:32;;;;;;;5.43;1.50;;;;;;;;;;5070565;28;20020;-79
2023/10/27 03:21:57;;;;;;;7.50;1.55;;;;;;;;;;5070588;28;20475;-79
2023/10/27 03:24:22;;;;;;;7.50;1.83;;;;;;;;;;5070888;28;20025;-79
2023/10/27 03:26:48;;;;;;;2.25;0.95;;;;;;;;;;5061266;28;20024;-79
2023/10/27 03:29:13;;;;;;;7.93;1.92;;;;;;;;;;5070486;28;20036;-79
2023/10/27 03:31:38;;;;;;;3.50;1.20;;;;;;;;;;5070399;28;20170;-79
2023/10/27 03:34:03;;;;;;;7.75;1.60;;;;;;;;;;5070435;28;20020;-79
2023/10/27 03:36:28;;;;;;;4.82;1.27;;;;;;;;;;5070654;28;20024;-79
2023/10/27 03:38:54;;;;;;;5.35;1.75;;;;;;;;;;5060541;28;20038;-79
2023/10/27 03:41:19;;;;;;;5.03;1.35;;;;;;;;;;5070676;28;20052;-79
2023/10/27 03:43:44;;;;;;;4.30;1.40;;;;;;;;;;5070239;28;20021;-78
2023/10/27 03:46:10;;;;;;;3.13;1.25;;;;;;;;;;5070612;28;20029;-79
2023/10/27 03:48:35;;;;;;;6.82;1.55;;;;;;;;;;5069946;28;20050;-78
2023/10/27 03:51:07;;;;;;;4.15;1.50;;;;;;;;;;5064232;28;20380;-79
2023/10/27 03:53:32;;;;;;;7.00;1.77;;;;;;;;;;5072219;28;20036;-79
2023/10/27 03:55:58;;;;;;;6.35;1.70;;;;;;;;;;5070116;28;20503;-78
2023/10/27 03:58:23;;;;;;;5.72;1.88;;;;;;;;;;5070224;28;20013;-78
2023/10/27 04:00:48;;;;;;;6.05;1.75;;;;;;;;;;5068677;28;20063;-79
2023/10/27 04:03:13;;;;;;;2.72;1.48;;;;;;;;;;5057159;28;20025;-79
2023/10/27 04:05:39;;;;;;;5.03;1.48;;;;;;;;;;5070211;28;20594;-79
2023/10/27 04:08:07;;;;;;;6.45;1.65;;;;;;;;;;5070030;28;20021;-79
2023/10/27 04:10:34;;;;;;;4.78;1.60;;;;;;;;;;5070353;28;20024;-79
2023/10/27 04:12:59;;;;;;;2.47;1.30;;;;;;;;;;5071491;28;20031;-79
2023/10/27 04:15:25;;;;;;;2.25;1.33;;;;;;;;;;5063499;28;20103;-79
2023/10/27 04:17:50;;;;;;;3.25;1.38;;;;;;;;;;5070075;28;20391;-79
2023/10/27 04:20:16;;;;;;;3.00;1.48;;;;;;;;;;5070705;28;20024;-79
2023/10/27 04:22:41;;;;;;;2.95;1.70;;;;;;;;;;5070390;28;20025;-79
2023/10/27 04:25:06;;;;;;;7.00;1.52;;;;;;;;;;5070093;28;20020;-79
2023/10/27 04:27:32;;;;;;;5.43;1.75;;;;;;;;;;5064537;28;20035;-79
2023/10/27 04:29:57;;;;;;;2.72;1.23;;;;;;;;;;5072790;28;20028;-79
2023/10/27 04:32:22;;;;;;;4.55;1.48;;;;;;;;;;5075345;28;20025;-79
2023/10/27 04:34:47;;;;;;;4.00;1.45;;;;;;;;;;5075317;28;20521;-79
2023/10/27 04:37:12;;;;;;;4.22;2.03;;;;;;;;;;5074233;28;20016;-79
2023/10/27 04:39:38;;;;;;;11.80;1.38;;;;;;;;;;5068937;28;20475;-79
2023/10/27 04:42:04;;;;;;;4.68;1.67;;;;;;;;;;5073974;28;20158;-79
2023/10/27 04:44:29;;;;;;;3.13;1.50;;;;;;;;;;5073990;28;20019;-79
2023/10/27 04:46:55;;;;;;;3.15;1.67;;;;;;;;;;5073565;28;20447;-79
2023/10/27 04:49:20;;;;;;;7.32;2.00;;;;;;;;;;5072626;28;20063;-79
2023/10/27 04:51:45;;;;;;;6.00;1.88;;;;;;;;;;5068763;28;20104;-79
2023/10/27 04:54:11;;;;;;;4.22;2.00;;;;;;;;;;5074787;28;20363;-79
2023/10/27 04:56:36;;;;;;;5.82;2.05;;;;;;;;;;5073664;28;20035;-79
2023/10/27 04:59:01;;;;;;;5.43;1.80;;;;;;;;;;5073437;28;20039;-79
2023/10/27 05:01:27;;;;;;;7.07;1.85;;;;;;;;;;5072871;28;20388;-79
2023/10/27 05:03:52;;;;;;;3.67;1.80;;;;;;;;;;5066142;28;20448;-79
2023/10/27 05:06:17;;;;;;;3.10;1.52;;;;;;;;;;5073559;28;20086;-79
2023/10/27 05:08:42;;;;;;;4.10;1.63;;;;;;;;;;5073559;28;20154;-79
2023/10/27 05:11:08;;;;;;;3.97;2.03;;;;;;;;;;5073499;28;20021;-79
2023/10/27 05:13:33;;;;;;;4.18;2.05;;;;;;;;;;5073080;28;20452;-80
2023/10/27 05:15:58;;;;;;;4.97;2.40;;;;;;;;;;5067865;28;20036;-79
2023/10/27 05:18:24;;;;;;;4.50;2.75;;;;;;;;;;5072883;28;20036;-79
2023/10/27 05:20:49;;;;;;;7.75;3.15;;;;;;;;;;5073369;28;20412;-79
2023/10/27 05:23:14;;;;;;;6.13;3.15;;;;;;;;;;5072868;28;20020;-79
2023/10/27 05:25:40;;;;;;;6.68;3.33;;;;;;;;;;5072538;28;20063;-79
2023/10/27 05:28:05;;;;;;;15.95;4.47;;;;;;;;;;5068924;28;20081;-79
2023/10/27 05:30:33;;;;;;;9.55;4.53;;;;;;;;;;5073117;28;20016;-79
2023/10/27 05:32:58;;;;;;;12.40;4.47;;;;;;;;;;5072769;28;20055;-79
2023/10/27 05:35:23;;;;;;;12.40;4.07;;;;;;;;;;5071395;28;20029;-79
2023/10/27 05:37:49;;;;;;;14.38;5.43;;;;;;;;;;5053480;28;20036;-79
2023/10/27 05:40:14;;;;;;;16.63;5.88;;;;;;;;;;5054053;28;20499;-80
2023/10/27 05:42:40;;;;;;;12.77;5.00;;;;;;;;;;5051097;28;20025;-79
2023/10/27 05:45:05;;;;;;;13.35;5.93;;;;;;;;;;5056111;28;20091;-78
2023/10/27 05:47:31;;;;;;;13.02;5.88;;;;;;;;;;5066764;28;20016;-79
2023/10/27 05:49:57;;;;;;;14.35;5.38;;;;;;;;;;5072752;28;20024;-79
2023/10/27 05:52:22;;;;;;;19.63;4.75;;;;;;;;;;5058151;28;20159;-79
2023/10/27 05:54:47;;;;;;;17.55;5.38;;;;;;;;;;5057800;28;20104;-79
2023/10/27 05:57:13;;;;;;;14.15;5.18;;;;;;;;;;5061133;28;20106;-79
2023/10/27 05:59:38;;;;;;;18.58;4.88;;;;;;;;;;5060106;28;20024;-79
2023/10/27 06:02:04;;;;;;;15.50;4.63;;;;;;;;;;5051231;28;20025;-79
2023/10/27 06:04:29;;;;;;;13.48;5.43;;;;;;;;;;5057905;28;20044;-79
2023/10/27 06:06:54;;;;;;;14.48;4.95;;;;;;;;;;5071015;28;20052;-80
2023/10/27 06:09:19;;;;;;;14.52;4.75;;;;;;;;;;5051650;28;20067;-79
2023/10/27 06:11:44;;;;;;;14.60;4.72;;;;;;;;;;5060806;28;20062;-80
2023/10/27 06:14:10;;;;;;;12.93;5.07;;;;;;;;;;5053455;28;20047;-79
2023/10/27 06:16:35;;;;;;;11.55;4.45;;;;;;;;;;5071821;28;20388;-80
2023/10/27 06:19:00;;;;;;;10.27;4.75;;;;;;;;;;5058827;28;20024;-80
2023/10/27 06:21:28;;;;;;;14.95;5.32;;;;;;;;;;5069248;28;20061;-79
2023/10/27 06:23:53;;;;;;;11.43;4.70;;;;;;;;;;5069070;28;20016;-80
2023/10/27 06:26:18;;;;;;;9.63;4.43;;;;;;;;;;5061857;28;20110;-79
2023/10/27 06:28:43;;;;;;;13.82;4.63;;;;;;;;;;5061291;28;20037;-80
2023/10/27 06:31:15;;;;;;;23.85;6.00;;;;;;;;;;5064898;28;20031;-79
2023/10/27 06:33:40;;;;;;;13.37;5.73;;;;;;;;;;5051348;28;20638;-79
2023/10/27 06:36:05;;;;;;;10.18;5.50;;;;;;;;;;5052164;28;20028;-79
2023/10/27 06:38:30;;;;;;;17.63;6.70;;;;;;;;;;5055200;28;20124;-79
2023/10/27 06:40:56;;;;;;;12.20;4.90;;;;;;;;;;5069152;28;20024;-80
2023/10/27 06:43:24;;;;;;;14.63;4.85;;;;;;;;;;5060634;28;20025;-79
2023/10/27 06:45:49;;;;;;;10.73;5.30;;;;;;;;;;5055411;28;20021;-79
2023/10/27 06:48:14;;;;;;;14.73;4.97;;;;;;;;;;5050356;28;20029;-80
2023/10/27 06:50:40;;;;;;;11.93;4.72;;;;;;;;;;5051133;28;20027;-79
2023/10/27 06:53:05;;;;;;;10.73;4.60;;;;;;;;;;5062256;28;20032;-79
2023/10/27 06:55:31;;;;;;;12.07;4.22;;;;;;;;;;5061218;28;20009;-79
2023/10/27 06:57:56;;;;;;;10.00;4.20;;;;;;;;;;5050705;28;20650;-79
2023/10/27 07:00:21;;;;;;;9.13;4.35;;;;;;;;;;5062884;28;20016;-79
2023/10/27 07:02:47;;;;;;;9.48;4.43;;;;;;;;;;5054084;28;20104;-79
2023/10/27 07:05:16;;;;;;;7.15;3.42;;;;;;;;;;5065721;28;20029;-79
2023/10/27 07:07:42;;;;;;;8.85;3.88;;;;;;;;;;5066380;28;20111;-79
2023/10/27 07:10:07;;;;;;;12.98;3.90;;;;;;;;;;5060345;28;20103;-79
2023/10/27 07:12:32;;;;;;;11.65;3.97;;;;;;;;;;5058198;28;20027;-79
2023/10/27 07:15:01;;;;;;;10.20;4.43;;;;;;;;;;5060825;28;20048;-79
2023/10/27 07:17:29;;;;;;;5.55;3.40;;;;;;;;;;5054943;28;20483;-79
2023/10/27 07:19:54;;;;;;;7.88;3.53;;;;;;;;;;5050214;28;20452;-79
2023/10/27 07:22:19;;;;;;;9.48;4.15;;;;;;;;;;5053638;28;20013;-79
2023/10/27 07:24:45;;;;;;;8.43;4.28;;;;;;;;;;5049866;28;20029;-79
2023/10/27 07:27:10;;;;;;;7.95;3.95;;;;;;;;;;5059397;28;20094;-79
2023/10/27 07:29:36;;;;;;;11.20;4.28;;;;;;;;;;5069817;28;20143;-79
2023/10/27 07:32:01;;;;;;;8.63;4.75;;;;;;;;;;5057071;28;20104;-79
2023/10/27 07:34:26;;;;;;;13.68;5.20;;;;;;;;;;5095518;28;20116;-79
2023/10/27 07:36:54;;;;;;;10.00;4.50;;;;;;;;;;5056681;28;20015;-80
2023/10/27 07:39:19;;;;;;;10.98;4.32;;;;;;;;;;5061402;28;20158;-80
2023/10/27 07:41:45;;;;;;;11.82;4.97;;;;;;;;;;5068858;28;20025;-79
2023/10/27 07:44:10;;;;;;;10.75;5.20;;;;;;;;;;5061871;28;20024;-80
2023/10/27 07:46:35;;;;;;;12.95;5.18;;;;;;;;;;5065288;28;20032;-79
2023/10/27 07:49:01;;;;;;;12.20;5.60;;;;;;;;;;5053958;28;20065;-79
2023/10/27 07:51:26;;;;;;;13.00;5.63;;;;;;;;;;5049302;28;20043;-80
2023/10/27 07:53:52;;;;;;;9.88;4.97;;;;;;;;;;5065942;28;20066;-79
2023/10/27 07:56:18;;;;;;;12.73;5.75;;;;;;;;;;5057508;28;20095;-80
2023/10/27 07:58:43;;;;;;;16.60;6.07;;;;;;;;;;5051467;28;20055;-80
2023/10/27 08:01:09;;;;;;;11.10;5.95;;;;;;;;;;5058014;28;20093;-79
2023/10/27 08:03:38;;;;;;;15.10;6.35;;;;;;;;;;5061415;28;20029;-79
2023/10/27 08:06:10;;;;;;;16.88;5.78;;;;;;;;;;5056010;28;20025;-80
2023/10/27 08:08:37;;;;;;;12.15;5.43;;;;;;;;;;5057232;28;20047;-80
2023/10/27 08:11:04;;;;;;;13.05;5.70;;;;;;;;;;5051884;28;20033;-80
2023/10/27 08:13:29;;;;;;;10.55;5.90;;;;;;;;;;5064669;28;20385;-80
2023/10/27 08:15:56;;;;;;;14.80;5.18;;;;;;;;;;5046346;28;20051;-79
2023/10/27 08:18:21;;;;;;;12.75;6.28;;;;;;;;;;5056238;28;20387;-80
2023/10/27 08:20:48;;;;;;;12.45;5.65;;;;;;;;;;5062917;28;20490;-80
2023/10/27 08:23:15;;;;;;;12.32;6.40;;;;;;;;;;5064816;28;20024;-80
2023/10/27 08:25:41;;;;;;;14.98;6.45;;;;;;;;;;5062985;28;20440;-79
2023/10/27 08:28:06;;;;;;;13.85;6.43;;;;;;;;;;5066084;28;20071;-79
2023/10/27 08:30:31;;;;;;;16.10;6.25;;;;;;;;;;5050852;28;20083;-79
2023/10/27 08:32:57;;;;;;;15.88;6.45;;;;;;;;;;5058024;28;20029;-80
2023/10/27 08:35:22;;;;;;;12.88;6.70;;;;;;;;;;5063428;28;20138;-80
2023/10/27 08:37:48;;;;;;;18.83;6.40;;;;;;;;;;5051868;28;20025;-80
2023/10/27 08:40:13;;;;;;;13.90;6.50;;;;;;;;;;5054366;28;20020;-79
2023/10/27 08:42:41;;;;;;;15.15;5.88;;;;;;;;;;5071488;28;20454;-79
2023/10/27 08:45:07;;;;;;;14.55;5.93;;;;;;;;;;5053885;28;20035;-79
2023/10/27 08:47:34;;;;;;;11.48;5.70;;;;;;;;;;5058325;28;20598;-79
2023/10/27 08:50:04;;;;;;;9.23;5.30;;;;;;;;;;5059850;28;20194;-80
2023/10/27 08:52:30;;;;;;;11.35;6.15;;;;;;;;;;5063955;28;20032;-79
2023/10/27 08:54:56;;;;;;;11.23;6.00;;;;;;;;;;5047154;28;20557;-79
2023/10/27 08:57:21;;;;;;;18.27;6.63;;;;;;;;;;5049351;28;20104;-80
2023/10/27 08:59:46;;;;;;;12.88;5.97;;;;;;;;;;5051090;28;20078;-79
2023/10/27 09:02:12;;;;;;;13.88;5.97;;;;;;;;;;5092471;28;20098;-79
2023/10/27 09:04:43;;;;;;;15.70;6.60;;;;;;;;;;5055287;28;20021;-79
2023/10/27 09:07:08;;;;;;;11.23;5.68;;;;;;;;;;5063423;28;20028;-79
2023/10/27 09:09:34;;;;;;;14.02;5.25;;;;;;;;;;5059301;28;20365;-79
2023/10/27 09:12:00;;;;;;;12.40;4.10;;;;;;;;;;5052384;28;20123;-80
2023/10/27 09:14:30;;;;;;;14.95;5.25;;;;;;;;;;5053737;28;20028;-80
2023/10/27 09:17:05;;;;;;;8.98;4.18;;;;;;;;;;5070664;28;20095;-79
2023/10/27 09:19:31;;;;;;;9.40;3.38;;;;;;;;;;5068722;28;20469;-78
2023/10/27 09:22:00;;;;;;;8.23;3.28;;;;;;;;;;5053838;28;20531;-79
2023/10/27 09:24:26;;;;;;;10.95;3.58;;;;;;;;;;5050385;28;20408;-79
2023/10/27 09:26:52;;;;;;;9.70;3.15;;;;;;;;;;5053467;28;20021;-79
2023/10/27 09:29:17;;;;;;;14.15;4.10;;;;;;;;;;5051319;28;20056;-79
2023/10/27 09:31:46;;;;;;;9.65;3.33;;;;;;;;;;5055917;28;20021;-80
2023/10/27 09:34:20;;;;;;;10.43;3.85;;;;;;;;;;5053911;28;20108;-79
2023/10/27 09:36:46;;;;;;;11.15;3.53;;;;;;;;;;5055185;28;20464;-79
2023/10/27 09:39:20;;;;;;;11.35;3.30;;;;;;;;;;5053311;28;20044;-79
2023/10/27 09:41:55;;;;;;;10.50;3.47;;;;;;;;;;5058510;28;20063;-79
2023/10/27 09:44:23;;;;;;;18.50;4.10;;;;;;;;;;5058124;28;20031;-79
2023/10/27 09:46:53;;;;;;;8.85;3.67;;;;;;;;;;5054389;28;20081;-80
2023/10/27 09:49:24;;;;;;;19.65;3.63;;;;;;;;;;5067961;28;20024;-80
2023/10/27 09:51:51;;;;;;;13.73;3.45;;;;;;;;;;5071474;28;20065;-79
2023/10/27 09:54:16;;;;;;;13.32;4.40;;;;;;;;;;5057355;28;20388;-79
2023/10/27 09:56:42;;;;;;;9.07;3.80;;;;;;;;;;5052208;28;20112;-79
2023/10/27 09:59:07;;;;;;;10.93;3.63;;;;;;;;;;5062417;28;20016;-79
2023/10/27 10:01:32;;;;;;;6.88;3.03;;;;;;;;;;5073030;28;20024;-79
2023/10/27 10:04:01;;;;;;;12.43;3.67;;;;;;;;;;5068963;28;20021;-79
2023/10/27 10:06:29;;;;;;;8.85;4.05;;;;;;;;;;5046475;28;20534;-79
2023/10/27 10:09:11;;;;;;;10.13;3.10;;;;;;;;;;5065049;28;20059;-79
2023/10/27 10:11:57;;;;;;;17.35;4.60;;;;;;;;;;5063794;28;20036;-79
2023/10/27 10:14:38;;;;;;;15.18;4.30;;;;;;;;;;5068455;28;20029;-78
2023/10/27 10:17:04;;;;;;;12.35;4.18;;;;;;;;;;5072516;28;20154;-79
2023/10/27 10:19:50;;;;;;;9.82;3.47;;;;;;;;;;5072557;28;20107;-79
2023/10/27 10:22:34;;;;;;;15.25;4.72;;;;;;;;;;5056271;28;20495;-79
2023/10/27 10:25:23;;;;;;;13.27;4.55;;;;;;;;;;5071445;28;20027;-79
2023/10/27 10:28:06;;;;;;;15.23;4.85;;;;;;;;;;5060519;28;20090;-79
2023/10/27 10:30:32;;;;;;;15.73;5.85;;;;;;;;;;5067470;28;20376;-79
2023/10/27 10:33:16;;;;;;;14.48;4.38;;;;;;;;;;5053433;28;20017;-79
2023/10/27 10:35:42;;;;;;;12.75;4.80;;;;;;;;;;5041111;28;20017;-79
2023/10/27 10:38:22;;;;;;;14.30;3.85;;;;;;;;;;5054295;28;20021;-79
2023/10/27 10:40:58;;;;;;;15.32;4.47;;;;;;;;;;5072322;28;20036;-79
2023/10/27 10:43:28;;;;;;;10.43;3.97;;;;;;;;;;5066086;28;20117;-79
2023/10/27 10:45:55;;;;;;;12.40;4.20;;;;;;;;;;5053292;28;20017;-79
2023/10/27 10:48:21;;;;;;;20.80;3.60;;;;;;;;;;5052954;28;20031;-79
2023/10/27 10:50:48;;;;;;;12.10;4.85;;;;;;;;;;5053977;28;20024;-79
2023/10/27 10:53:17;;;;;;;12.98;4.07;;;;;;;;;;5071759;28;20024;-80
2023/10/27 10:55:45;;;;;;;10.38;3.75;;;;;;;;;;5063489;28;20036;-79
2023/10/27 10:58:19;;;;;;;10.40;3.40;;;;;;;;;;5063971;28;20020;-79
2023/10/27 11:00:44;;;;;;;6.47;2.85;;;;;;;;;;5057574;28;20021;-79
2023/10/27 11:03:09;;;;;;;5.93;2.67;;;;;;;;;;5071805;28;20077;-79
2023/10/27 11:05:35;;;;;;;8.68;3.22;;;;;;;;;;5071946;28;20102;-79
2023/10/27 11:08:01;;;;;;;8.65;3.20;;;;;;;;;;5065328;28;20469;-79
2023/10/27 11:10:26;;;;;;;14.20;3.50;;;;;;;;;;5052002;28;20052;-79
2023/10/27 11:12:51;;;;;;;8.98;3.13;;;;;;;;;;5068346;28;20464;-79
2023/10/27 11:15:36;;;;;;;6.50;2.45;;;;;;;;;;5051780;28;20084;-79
2023/10/27 11:18:14;;;;;;;7.60;2.95;;;;;;;;;;5068895;28;20486;-79
2023/10/27 11:20:39;;;;;;;6.45;2.60;;;;;;;;;;5060976;28;20025;-79
2023/10/27 11:23:12;;;;;;;7.28;2.60;;;;;;;;;;5055874;28;20098;-80
2023/10/27 11:25:38;;;;;;;6.82;2.53;;;;;;;;;;5067691;28;20028;-79
2023/10/27 11:28:19;;;;;;;8.00;2.65;;;;;;;;;;5067324;28;20021;-79
2023/10/27 11:30:56;;;;;;;8.30;2.42;;;;;;;;;;5063017;28;20033;-79
2023/10/27 11:33:22;;;;;;;8.75;2.50;;;;;;;;;;5054617;28;20020;-79
2023/10/27 11:35:47;;;;;;;6.65;2.35;;;;;;;;;;5060550;28;20360;-79
2023/10/27 11:38:12;;;;;;;4.80;2.45;;;;;;;;;;5072048;28;20067;-78
2023/10/27 11:40:38;;;;;;;9.65;2.60;;;;;;;;;;5057979;28;20104;-79
2023/10/27 11:43:03;;;;;;;13.75;2.92;;;;;;;;;;5064694;28;20448;-79
2023/10/27 11:45:28;;;;;;;12.20;3.17;;;;;;;;;;5063375;28;20029;-79
2023/10/27 11:47:54;;;;;;;7.75;3.05;;;;;;;;;;5062632;28;20491;-79
2023/10/27 11:50:19;;;;;;;6.90;3.15;;;;;;;;;;5060613;28;20025;-79
2023/10/27 11:52:44;;;;;;;12.35;3.70;;;;;;;;;;5048840;28;20437;-80
2023/10/27 11:55:12;;;;;;;10.27;3.10;;;;;;;;;;5057565;28;20445;-80
2023/10/27 11:57:37;;;;;;;7.15;2.80;;;;;;;;;;5088179;28;20460;-80
2023/10/27 12:00:03;;;;;;;10.73;3.10;;;;;;;;;;5054540;28;20025;-80
2023/10/27 12:02:28;;;;;;;9.00;2.53;;;;;;;;;;5054050;28;20024;-80
2023/10/27 12:04:53;;;;;;;11.48;2.67;;;;;;;;;;5067352;28;20048;-80
2023/10/27 12:07:19;;;;;;;7.28;2.60;;;;;;;;;;5064391;28;20066;-80
2023/10/27 12:09:44;;;;;;;6.00;2.53;;;;;;;;;;5066532;28;20043;-80
2023/10/27 12:12:09;;;;;;;10.57;2.45;;;;;;;;;;5061829;28;20048;-80
2023/10/27 12:14:35;;;;;;;10.77;2.10;;;;;;;;;;5058974;28;20330;-80
2023/10/27 12:17:00;;;;;;;5.70;2.08;;;;;;;;;;5066523;28;20013;-80
2023/10/27 12:19:27;;;;;;;10.18;2.03;;;;;;;;;;5065758;28;20016;-80
2023/10/27 12:21:52;;;;;;;5.95;1.95;;;;;;;;;;5053803;28;20013;-80
2023/10/27 12:24:17;;;;;;;6.05;2.17;;;;;;;;;;5063973;28;20043;-80
2023/10/27 12:26:44;;;;;;;6.88;1.90;;;;;;;;;;5065155;28;20033;-80
2023/10/27 12:29:10;;;;;;;8.02;2.25;;;;;;;;;;5070728;28;20047;-80
2023/10/27 12:31:35;;;;;;;5.40;1.98;;;;;;;;;;5062082;28;20029;-80
2023/10/27 12:34:01;;;;;;;5.93;2.08;;;;;;;;;;5063514;28;20468;-80
2023/10/27 12:36:26;;;;;;;7.32;1.67;;;;;;;;;;5053103;28;20451;-80
2023/10/27 12:38:51;;;;;;;9.13;2.13;;;;;;;;;;5070671;28;20479;-80
2023/10/27 12:41:16;;;;;;;6.38;1.60;;;;;;;;;;5070698;28;20021;-80
2023/10/27 12:43:43;;;;;;;14.68;2.53;;;;;;;;;;5070476;28;20373;-80
2023/10/27 12:46:12;;;;;;;4.53;1.45;;;;;;;;;;5063484;28;20028;-80
2023/10/27 12:48:37;;;;;;;7.63;1.70;;;;;;;;;;5067772;28;20021;-80
2023/10/27 12:51:05;;;;;;;13.40;2.42;;;;;;;;;;5065826;28;20051;-80
2023/10/27 12:53:31;;;;;;;7.95;2.03;;;;;;;;;;5074249;28;20039;-80
2023/10/27 12:55:58;;;;;;;9.10;2.00;;;;;;;;;;5073924;28;20020;-80
2023/10/27 12:58:24;;;;;;;13.95;1.90;;;;;;;;;;5065856;28;20491;-80
2023/10/27 13:00:49;;;;;;;10.55;2.00;;;;;;;;;;5060839;28;20056;-80
2023/10/27 13:03:20;;;;;;;7.95;1.77;;;;;;;;;;5054686;28;20021;-80
2023/10/27 13:05:46;;;;;;;6.00;1.87;;;;;;;;;;5068570;28;20490;-81
2023/10/27 13:08:12;;;;;;;4.13;1.45;;;;;;;;;;5063423;28;20119;-80
2023/10/27 13:10:37;;;;;;;5.15;1.83;;;;;;;;;;5070523;28;20020;-81
2023/10/27 13:13:02;;;;;;;12.10;2.10;;;;;;;;;;5073785;28;20150;-80
2023/10/27 13:15:30;;;;;;;6.22;1.90;;;;;;;;;;5068097;28;20008;-80
2023/10/27 13:17:56;;;;;;;5.53;1.50;;;;;;;;;;5073944;28;20352;-80
2023/10/27 13:20:21;;;;;;;9.73;1.65;;;;;;;;;;5071290;28;20020;-81
2023/10/27 13:22:47;;;;;;;10.32;1.83;;;;;;;;;;5068101;28;20036;-80
2023/10/27 13:25:12;;;;;;;7.20;1.90;;;;;;;;;;5073963;28;20020;-80
2023/10/27 13:27:38;;;;;;;11.45;1.92;;;;;;;;;;5055979;28;20029;-80
2023/10/27 13:30:06;;;;;;;9.00;1.90;;;;;;;;;;5069033;28;20020;-80
2023/10/27 13:32:31;;;;;;;5.25;1.50;;;;;;;;;;5073670;28;20024;-80
2023/10/27 13:34:57;;;;;;;9.88;2.13;;;;;;;;;;5073511;28;20036;-80
2023/10/27 13:37:29;;;;;;;10.00;1.75;;;;;;;;;;5073753;28;20020;-80
2023/10/27 13:39:55;;;;;;;6.32;1.77;;;;;;;;;;5073590;28;20480;-80
2023/10/27 13:42:20;;;;;;;7.78;1.92;;;;;;;;;;5069385;28;20021;-80
2023/10/27 13:44:45;;;;;;;7.03;1.77;;;;;;;;;;5073891;28;20096;-80
2023/10/27 13:47:13;;;;;;;14.68;2.15;;;;;;;;;;5073804;28;20088;-80
2023/10/27 13:49:38;;;;;;;12.82;1.73;;;;;;;;;;5074946;28;20017;-80
2023/10/27 13:52:04;;;;;;;9.15;1.65;;;;;;;;;;5073170;28;20040;-80
2023/10/27 13:54:29;;;;;;;6.80;1.40;;;;;;;;;;5063507;28;20028;-80
2023/10/27 13:56:58;;;;;;;6.07;1.38;;;;;;;;;;5068677;28;20054;-80
2023/10/27 13:59:23;;;;;;;5.63;1.40;;;;;;;;;;5073338;28;20016;-79
2023/10/27 14:01:49;;;;;;;8.63;1.38;;;;;;;;;;5072959;28;20353;-80
2023/10/27 14:04:14;;;;;;;2.10;0.90;;;;;;;;;;5072942;28;20048;-80
2023/10/27 14:06:46;;;;;;;3.47;1.10;;;;;;;;;;5066891;28;20085;-80
2023/10/27 14:09:14;;;;;;;4.22;1.17;;;;;;;;;;5073042;28;20062;-80
2023/10/27 14:11:39;;;;;;;6.25;1.27;;;;;;;;;;5073002;28;20464;-80
2023/10/27 14:14:04;;;;;;;6.32;0.90;;;;;;;;;;5073157;28;20044;-80
2023/10/27 14:16:30;;;;;;;4.25;1.02;;;;;;;;;;5072692;28;20021;-80
2023/10/27 14:18:55;;;;;;;4.78;0.90;;;;;;;;;;5068327;28;20024;-80
2023/10/27 14:21:20;;;;;;;2.53;1.00;;;;;;;;;;5072817;28;20039;-80
2023/10/27 14:23:46;;;;;;;2.13;0.80;;;;;;;;;;5072540;28;20367;-80
2023/10/27 14:26:12;;;;;;;1.95;0.70;;;;;;;;;;5067130;28;20112;-80
2023/10/27 14:28:41;;;;;;;5.60;0.90;;;;;;;;;;5072635;28;20020;-80
2023/10/27 14:31:07;;;;;;;7.13;1.13;;;;;;;;;;5069901;28;20039;-81
2023/10/27 14:33:33;;;;;;;2.72;1.00;;;;;;;;;;5072318;28;20024;-80